Hauptseite
METAR-TAF:

METAR-TAF

Flughäfen :

Troyes, Frankreich

Breite: 48-20N, Länge: 004-01E, Höhe: 118 m

Beobachtung

Neuester Wetterbericht von vor 15 Minuten, um 09:00 UTC
Wind 6 kt aus Nordwest
Temperatur 17°C
Luftfeuchtigkeit 77%
Luftdruck 1018 hPa
Sichtweite 10 km oder mehr
Leicht bewölkt in der Höhe von 3300 ft

METAR: LFQB 230900Z AUTO 32006KT 9999 FEW033 17/13 Q1018

Zeit: 11:15 (09:15 UTC)


TAF: fehlend

Wetterbeobachtungen und Prognosen von mehr als 4000 Flughäfen (METAR und TAF Bericht).

Die verfügbaren Stationen werden durch gelbe und rote Markierungen auf der Karte dargestellt.

Führen Sie die Maus auf sie, um den Namen der Station zu sehen.

Darauf klicken, um die Beobachtung von Wetterbeobachtungen und Prognosen zu sehen.

Um die Karte zu ändern : klicken Sie auf den grünen Tasten mit einem schwarzen Kreuz Zum Vergrößern, auf den grünen Button mit einem Gedankenstrich zu verkleinern, oder auf die grünen Pfeile für benachbarte Karten.


METAR-TAF: